sensor_id;sensor_type;location;lat;lon;timestamp;P1;durP1;ratioP1;P2;durP2;ratioP2
40515;SDS011;26216;53.724;9.898;2022-10-30T00:00:16;12.70;;;7.85;;
40515;SDS011;26216;53.724;9.898;2022-10-30T00:02:44;8.73;;;6.95;;
40515;SDS011;26216;53.724;9.898;2022-10-30T00:05:11;9.80;;;6.85;;
40515;SDS011;26216;53.724;9.898;2022-10-30T00:07:37;8.65;;;6.68;;
40515;SDS011;26216;53.724;9.898;2022-10-30T00:10:03;11.73;;;7.65;;
40515;SDS011;26216;53.724;9.898;2022-10-30T00:12:29;10.60;;;7.03;;
40515;SDS011;26216;53.724;9.898;2022-10-30T00:14:55;8.15;;;6.32;;
40515;SDS011;26216;53.724;9.898;2022-10-30T00:17:20;9.82;;;7.18;;
40515;SDS011;26216;53.724;9.898;2022-10-30T00:19:46;10.07;;;7.40;;
40515;SDS011;26216;53.724;9.898;2022-10-30T00:22:12;9.38;;;7.10;;
40515;SDS011;26216;53.724;9.898;2022-10-30T00:24:38;9.48;;;7.60;;
40515;SDS011;26216;53.724;9.898;2022-10-30T00:27:04;11.07;;;7.47;;
40515;SDS011;26216;53.724;9.898;2022-10-30T00:29:29;10.57;;;6.68;;
40515;SDS011;26216;53.724;9.898;2022-10-30T00:31:55;8.57;;;6.68;;
40515;SDS011;26216;53.724;9.898;2022-10-30T00:34:21;8.55;;;6.55;;
40515;SDS011;26216;53.724;9.898;2022-10-30T00:36:47;8.35;;;6.47;;
40515;SDS011;26216;53.724;9.898;2022-10-30T00:39:13;8.75;;;6.30;;
40515;SDS011;26216;53.724;9.898;2022-10-30T00:41:39;7.78;;;6.38;;
40515;SDS011;26216;53.724;9.898;2022-10-30T00:46:59;10.00;;;7.80;;
40515;SDS011;26216;53.724;9.898;2022-10-30T00:49:30;10.63;;;6.95;;
40515;SDS011;26216;53.724;9.898;2022-10-30T00:51:59;8.00;;;6.28;;
40515;SDS011;26216;53.724;9.898;2022-10-30T00:54:27;6.78;;;6.00;;
40515;SDS011;26216;53.724;9.898;2022-10-30T00:56:53;8.55;;;6.70;;
40515;SDS011;26216;53.724;9.898;2022-10-30T00:59:24;8.68;;;5.95;;
40515;SDS011;26216;53.724;9.898;2022-10-30T01:01:54;8.18;;;6.20;;
40515;SDS011;26216;53.724;9.898;2022-10-30T01:04:21;7.53;;;5.88;;
40515;SDS011;26216;53.724;9.898;2022-10-30T01:06:48;9.20;;;5.97;;
40515;SDS011;26216;53.724;9.898;2022-10-30T01:09:17;9.05;;;6.50;;
40515;SDS011;26216;53.724;9.898;2022-10-30T01:11:43;8.70;;;6.82;;
40515;SDS011;26216;53.724;9.898;2022-10-30T01:14:10;9.55;;;6.75;;
40515;SDS011;26216;53.724;9.898;2022-10-30T01:33:17;10.52;;;7.28;;
40515;SDS011;26216;53.724;9.898;2022-10-30T01:35:57;8.20;;;7.13;;
40515;SDS011;26216;53.724;9.898;2022-10-30T01:41:37;8.77;;;6.20;;
40515;SDS011;26216;53.724;9.898;2022-10-30T01:44:05;9.50;;;6.78;;
40515;SDS011;26216;53.724;9.898;2022-10-30T01:49:58;7.57;;;6.72;;
40515;SDS011;26216;53.724;9.898;2022-10-30T02:02:34;6.47;;;5.72;;
40515;SDS011;26216;53.724;9.898;2022-10-30T02:05:00;10.65;;;6.10;;
40515;SDS011;26216;53.724;9.898;2022-10-30T02:07:26;8.07;;;6.10;;
40515;SDS011;26216;53.724;9.898;2022-10-30T02:09:52;8.60;;;6.28;;
40515;SDS011;26216;53.724;9.898;2022-10-30T02:12:19;7.80;;;5.90;;
40515;SDS011;26216;53.724;9.898;2022-10-30T02:14:51;6.13;;;5.10;;
40515;SDS011;26216;53.724;9.898;2022-10-30T02:17:22;8.23;;;5.97;;
40515;SDS011;26216;53.724;9.898;2022-10-30T02:19:48;8.70;;;5.70;;
40515;SDS011;26216;53.724;9.898;2022-10-30T02:22:14;8.25;;;5.75;;
40515;SDS011;26216;53.724;9.898;2022-10-30T02:24:42;8.32;;;5.88;;
40515;SDS011;26216;53.724;9.898;2022-10-30T02:27:08;9.57;;;5.75;;
40515;SDS011;26216;53.724;9.898;2022-10-30T02:29:34;7.40;;;5.32;;
40515;SDS011;26216;53.724;9.898;2022-10-30T02:32:00;7.45;;;5.30;;
40515;SDS011;26216;53.724;9.898;2022-10-30T02:34:26;9.10;;;5.45;;
40515;SDS011;26216;53.724;9.898;2022-10-30T02:36:52;8.23;;;5.50;;
40515;SDS011;26216;53.724;9.898;2022-10-30T02:39:18;8.32;;;5.10;;
40515;SDS011;26216;53.724;9.898;2022-10-30T02:41:45;6.93;;;5.00;;
40515;SDS011;26216;53.724;9.898;2022-10-30T02:44:12;8.18;;;5.30;;
40515;SDS011;26216;53.724;9.898;2022-10-30T02:46:38;7.18;;;5.32;;
40515;SDS011;26216;53.724;9.898;2022-10-30T02:49:03;7.05;;;5.00;;
40515;SDS011;26216;53.724;9.898;2022-10-30T02:51:30;8.13;;;4.95;;
40515;SDS011;26216;53.724;9.898;2022-10-30T02:53:57;6.55;;;4.90;;
40515;SDS011;26216;53.724;9.898;2022-10-30T02:56:23;8.52;;;5.38;;
40515;SDS011;26216;53.724;9.898;2022-10-30T02:58:49;7.10;;;4.78;;
40515;SDS011;26216;53.724;9.898;2022-10-30T03:01:16;6.03;;;4.70;;
40515;SDS011;26216;53.724;9.898;2022-10-30T03:03:43;6.75;;;4.85;;
40515;SDS011;26216;53.724;9.898;2022-10-30T03:06:12;6.78;;;4.40;;
40515;SDS011;26216;53.724;9.898;2022-10-30T03:08:39;5.78;;;4.38;;
40515;SDS011;26216;53.724;9.898;2022-10-30T03:11:10;6.22;;;4.47;;
40515;SDS011;26216;53.724;9.898;2022-10-30T03:13:37;6.30;;;4.70;;
40515;SDS011;26216;53.724;9.898;2022-10-30T03:16:07;6.22;;;4.10;;
40515;SDS011;26216;53.724;9.898;2022-10-30T03:18:38;6.68;;;4.32;;
40515;SDS011;26216;53.724;9.898;2022-10-30T03:21:05;6.30;;;4.30;;
40515;SDS011;26216;53.724;9.898;2022-10-30T03:23:33;6.82;;;4.05;;
40515;SDS011;26216;53.724;9.898;2022-10-30T03:25:59;5.78;;;4.05;;
40515;SDS011;26216;53.724;9.898;2022-10-30T03:28:26;5.30;;;4.22;;
40515;SDS011;26216;53.724;9.898;2022-10-30T03:30:57;6.30;;;3.85;;
40515;SDS011;26216;53.724;9.898;2022-10-30T03:33:28;6.18;;;4.35;;
40515;SDS011;26216;53.724;9.898;2022-10-30T03:35:54;7.90;;;4.60;;
40515;SDS011;26216;53.724;9.898;2022-10-30T03:38:20;6.32;;;4.50;;
40515;SDS011;26216;53.724;9.898;2022-10-30T03:40:47;5.88;;;4.22;;
40515;SDS011;26216;53.724;9.898;2022-10-30T03:43:13;7.28;;;4.43;;
40515;SDS011;26216;53.724;9.898;2022-10-30T03:45:39;5.45;;;4.30;;
40515;SDS011;26216;53.724;9.898;2022-10-30T03:48:09;7.28;;;4.20;;
40515;SDS011;26216;53.724;9.898;2022-10-30T03:50:35;6.30;;;4.20;;
40515;SDS011;26216;53.724;9.898;2022-10-30T03:53:01;6.13;;;4.03;;
40515;SDS011;26216;53.724;9.898;2022-10-30T03:55:27;6.03;;;4.20;;
40515;SDS011;26216;53.724;9.898;2022-10-30T03:57:53;5.47;;;4.53;;
40515;SDS011;26216;53.724;9.898;2022-10-30T04:00:19;6.88;;;3.85;;
40515;SDS011;26216;53.724;9.898;2022-10-30T04:02:48;6.03;;;4.32;;
40515;SDS011;26216;53.724;9.898;2022-10-30T04:05:16;6.43;;;4.22;;
40515;SDS011;26216;53.724;9.898;2022-10-30T04:07:44;6.72;;;4.40;;
40515;SDS011;26216;53.724;9.898;2022-10-30T04:10:11;6.53;;;4.60;;
40515;SDS011;26216;53.724;9.898;2022-10-30T04:12:37;6.45;;;4.22;;
40515;SDS011;26216;53.724;9.898;2022-10-30T04:15:04;5.35;;;4.40;;
40515;SDS011;26216;53.724;9.898;2022-10-30T04:17:31;6.05;;;4.30;;
40515;SDS011;26216;53.724;9.898;2022-10-30T04:19:57;6.60;;;4.10;;
40515;SDS011;26216;53.724;9.898;2022-10-30T04:22:23;6.60;;;4.53;;
40515;SDS011;26216;53.724;9.898;2022-10-30T04:24:49;5.80;;;4.38;;
40515;SDS011;26216;53.724;9.898;2022-10-30T04:27:17;6.13;;;4.30;;
40515;SDS011;26216;53.724;9.898;2022-10-30T04:29:44;5.95;;;3.88;;
40515;SDS011;26216;53.724;9.898;2022-10-30T04:32:11;6.70;;;4.13;;
40515;SDS011;26216;53.724;9.898;2022-10-30T04:34:37;5.85;;;3.92;;
40515;SDS011;26216;53.724;9.898;2022-10-30T04:37:04;6.07;;;3.72;;
40515;SDS011;26216;53.724;9.898;2022-10-30T04:39:30;6.68;;;3.97;;
40515;SDS011;26216;53.724;9.898;2022-10-30T04:41:56;5.30;;;4.20;;
40515;SDS011;26216;53.724;9.898;2022-10-30T04:44:23;6.18;;;4.10;;
40515;SDS011;26216;53.724;9.898;2022-10-30T04:46:49;5.95;;;4.00;;
40515;SDS011;26216;53.724;9.898;2022-10-30T04:49:14;6.60;;;4.00;;
40515;SDS011;26216;53.724;9.898;2022-10-30T04:51:40;6.55;;;4.30;;
40515;SDS011;26216;53.724;9.898;2022-10-30T04:54:06;5.78;;;4.35;;
40515;SDS011;26216;53.724;9.898;2022-10-30T04:56:32;6.20;;;4.38;;
40515;SDS011;26216;53.724;9.898;2022-10-30T04:58:58;6.43;;;4.00;;
40515;SDS011;26216;53.724;9.898;2022-10-30T05:01:24;5.22;;;3.65;;
40515;SDS011;26216;53.724;9.898;2022-10-30T05:03:49;6.30;;;4.00;;
40515;SDS011;26216;53.724;9.898;2022-10-30T05:08:45;6.90;;;4.03;;
40515;SDS011;26216;53.724;9.898;2022-10-30T05:11:11;6.97;;;4.25;;
40515;SDS011;26216;53.724;9.898;2022-10-30T05:13:38;4.97;;;4.00;;
40515;SDS011;26216;53.724;9.898;2022-10-30T05:16:04;5.60;;;3.78;;
40515;SDS011;26216;53.724;9.898;2022-10-30T05:18:30;4.20;;;3.45;;
40515;SDS011;26216;53.724;9.898;2022-10-30T05:20:56;5.70;;;4.05;;
40515;SDS011;26216;53.724;9.898;2022-10-30T05:23:21;5.38;;;3.58;;
40515;SDS011;26216;53.724;9.898;2022-10-30T05:25:47;5.47;;;3.92;;
40515;SDS011;26216;53.724;9.898;2022-10-30T05:28:13;5.97;;;3.90;;
40515;SDS011;26216;53.724;9.898;2022-10-30T05:30:40;7.03;;;3.97;;
40515;SDS011;26216;53.724;9.898;2022-10-30T05:33:06;4.75;;;3.50;;
40515;SDS011;26216;53.724;9.898;2022-10-30T05:35:35;6.50;;;3.90;;
40515;SDS011;26216;53.724;9.898;2022-10-30T05:38:02;5.22;;;3.67;;
40515;SDS011;26216;53.724;9.898;2022-10-30T05:40:30;5.93;;;3.78;;
40515;SDS011;26216;53.724;9.898;2022-10-30T05:42:56;5.85;;;3.72;;
40515;SDS011;26216;53.724;9.898;2022-10-30T05:45:23;8.02;;;4.13;;
40515;SDS011;26216;53.724;9.898;2022-10-30T05:47:56;5.93;;;3.97;;
40515;SDS011;26216;53.724;9.898;2022-10-30T05:50:23;4.63;;;3.20;;
40515;SDS011;26216;53.724;9.898;2022-10-30T05:52:57;3.90;;;3.50;;
40515;SDS011;26216;53.724;9.898;2022-10-30T05:55:24;6.97;;;3.88;;
40515;SDS011;26216;53.724;9.898;2022-10-30T05:57:56;5.18;;;3.60;;
40515;SDS011;26216;53.724;9.898;2022-10-30T06:00:24;4.55;;;3.33;;
40515;SDS011;26216;53.724;9.898;2022-10-30T06:02:51;5.60;;;3.72;;
40515;SDS011;26216;53.724;9.898;2022-10-30T06:05:22;5.95;;;3.80;;
40515;SDS011;26216;53.724;9.898;2022-10-30T06:07:48;5.03;;;3.25;;
40515;SDS011;26216;53.724;9.898;2022-10-30T06:10:14;4.30;;;3.50;;
40515;SDS011;26216;53.724;9.898;2022-10-30T06:12:40;4.70;;;3.65;;
40515;SDS011;26216;53.724;9.898;2022-10-30T06:15:06;5.05;;;3.70;;
40515;SDS011;26216;53.724;9.898;2022-10-30T06:17:32;5.03;;;3.45;;
40515;SDS011;26216;53.724;9.898;2022-10-30T06:19:57;4.03;;;3.45;;
40515;SDS011;26216;53.724;9.898;2022-10-30T06:22:24;7.75;;;4.05;;
40515;SDS011;26216;53.724;9.898;2022-10-30T06:24:50;4.60;;;3.38;;
40515;SDS011;26216;53.724;9.898;2022-10-30T06:27:16;5.05;;;3.50;;
40515;SDS011;26216;53.724;9.898;2022-10-30T06:29:42;5.40;;;3.40;;
40515;SDS011;26216;53.724;9.898;2022-10-30T06:32:07;4.60;;;3.53;;
40515;SDS011;26216;53.724;9.898;2022-10-30T06:34:33;5.55;;;3.60;;
40515;SDS011;26216;53.724;9.898;2022-10-30T06:36:59;5.45;;;3.70;;
40515;SDS011;26216;53.724;9.898;2022-10-30T06:39:25;5.10;;;3.35;;
40515;SDS011;26216;53.724;9.898;2022-10-30T06:41:51;5.28;;;3.80;;
40515;SDS011;26216;53.724;9.898;2022-10-30T06:44:17;4.70;;;3.40;;
40515;SDS011;26216;53.724;9.898;2022-10-30T06:46:43;7.10;;;4.22;;
40515;SDS011;26216;53.724;9.898;2022-10-30T06:49:09;5.13;;;3.72;;
40515;SDS011;26216;53.724;9.898;2022-10-30T06:51:34;6.32;;;4.13;;
40515;SDS011;26216;53.724;9.898;2022-10-30T06:54:00;5.97;;;3.70;;
40515;SDS011;26216;53.724;9.898;2022-10-30T06:56:26;6.47;;;3.70;;
40515;SDS011;26216;53.724;9.898;2022-10-30T06:58:52;5.60;;;3.75;;
40515;SDS011;26216;53.724;9.898;2022-10-30T07:01:18;5.80;;;3.97;;
40515;SDS011;26216;53.724;9.898;2022-10-30T07:03:44;6.93;;;4.15;;
40515;SDS011;26216;53.724;9.898;2022-10-30T07:06:10;6.70;;;3.72;;
40515;SDS011;26216;53.724;9.898;2022-10-30T07:08:35;5.90;;;3.90;;
40515;SDS011;26216;53.724;9.898;2022-10-30T07:11:01;5.80;;;3.78;;
40515;SDS011;26216;53.724;9.898;2022-10-30T07:13:27;4.78;;;3.50;;
40515;SDS011;26216;53.724;9.898;2022-10-30T07:15:53;4.72;;;3.60;;
40515;SDS011;26216;53.724;9.898;2022-10-30T07:18:19;6.07;;;3.80;;
40515;SDS011;26216;53.724;9.898;2022-10-30T07:20:45;5.43;;;3.83;;
40515;SDS011;26216;53.724;9.898;2022-10-30T07:23:10;6.43;;;4.00;;
40515;SDS011;26216;53.724;9.898;2022-10-30T07:25:36;4.88;;;3.22;;
40515;SDS011;26216;53.724;9.898;2022-10-30T07:28:02;7.00;;;4.10;;
40515;SDS011;26216;53.724;9.898;2022-10-30T07:30:28;5.25;;;3.40;;
40515;SDS011;26216;53.724;9.898;2022-10-30T07:35:27;4.97;;;3.45;;
40515;SDS011;26216;53.724;9.898;2022-10-30T07:37:53;6.00;;;3.85;;
40515;SDS011;26216;53.724;9.898;2022-10-30T07:40:20;5.93;;;3.80;;
40515;SDS011;26216;53.724;9.898;2022-10-30T07:42:46;5.22;;;3.20;;
40515;SDS011;26216;53.724;9.898;2022-10-30T07:45:12;6.18;;;3.60;;
40515;SDS011;26216;53.724;9.898;2022-10-30T07:47:41;4.70;;;3.33;;
40515;SDS011;26216;53.724;9.898;2022-10-30T07:50:08;4.60;;;3.60;;
40515;SDS011;26216;53.724;9.898;2022-10-30T07:52:34;4.80;;;3.20;;
40515;SDS011;26216;53.724;9.898;2022-10-30T07:55:00;7.10;;;4.45;;
40515;SDS011;26216;53.724;9.898;2022-10-30T07:57:26;6.50;;;4.20;;
40515;SDS011;26216;53.724;9.898;2022-10-30T07:59:54;5.90;;;3.88;;
40515;SDS011;26216;53.724;9.898;2022-10-30T08:02:20;4.57;;;3.47;;
40515;SDS011;26216;53.724;9.898;2022-10-30T08:04:46;5.68;;;3.90;;
40515;SDS011;26216;53.724;9.898;2022-10-30T08:07:12;6.03;;;4.22;;
40515;SDS011;26216;53.724;9.898;2022-10-30T08:09:38;6.97;;;4.28;;
40515;SDS011;26216;53.724;9.898;2022-10-30T08:12:04;5.68;;;4.00;;
40515;SDS011;26216;53.724;9.898;2022-10-30T08:14:30;5.47;;;4.03;;
40515;SDS011;26216;53.724;9.898;2022-10-30T08:16:59;6.68;;;4.30;;
40515;SDS011;26216;53.724;9.898;2022-10-30T08:19:24;5.45;;;3.97;;
40515;SDS011;26216;53.724;9.898;2022-10-30T08:21:50;7.38;;;4.85;;
40515;SDS011;26216;53.724;9.898;2022-10-30T08:24:16;6.60;;;4.53;;
40515;SDS011;26216;53.724;9.898;2022-10-30T08:26:42;5.15;;;4.03;;
40515;SDS011;26216;53.724;9.898;2022-10-30T08:29:08;7.75;;;4.65;;
40515;SDS011;26216;53.724;9.898;2022-10-30T08:31:33;6.72;;;4.22;;
40515;SDS011;26216;53.724;9.898;2022-10-30T08:33:59;7.50;;;4.53;;
40515;SDS011;26216;53.724;9.898;2022-10-30T08:36:25;7.18;;;4.22;;
40515;SDS011;26216;53.724;9.898;2022-10-30T08:38:51;5.95;;;4.65;;
40515;SDS011;26216;53.724;9.898;2022-10-30T08:41:17;7.78;;;5.25;;
40515;SDS011;26216;53.724;9.898;2022-10-30T08:43:42;6.70;;;5.00;;
40515;SDS011;26216;53.724;9.898;2022-10-30T08:46:08;6.65;;;4.20;;
40515;SDS011;26216;53.724;9.898;2022-10-30T08:48:34;9.18;;;4.90;;
40515;SDS011;26216;53.724;9.898;2022-10-30T08:51:00;10.73;;;5.78;;
40515;SDS011;26216;53.724;9.898;2022-10-30T08:53:26;7.50;;;5.13;;
40515;SDS011;26216;53.724;9.898;2022-10-30T08:55:52;9.68;;;5.47;;
40515;SDS011;26216;53.724;9.898;2022-10-30T08:58:18;6.40;;;4.63;;
40515;SDS011;26216;53.724;9.898;2022-10-30T09:00:44;7.30;;;5.15;;
40515;SDS011;26216;53.724;9.898;2022-10-30T09:03:10;9.63;;;5.22;;
40515;SDS011;26216;53.724;9.898;2022-10-30T09:05:36;7.65;;;5.35;;
40515;SDS011;26216;53.724;9.898;2022-10-30T09:08:02;8.13;;;5.35;;
40515;SDS011;26216;53.724;9.898;2022-10-30T09:10:28;6.50;;;4.55;;
40515;SDS011;26216;53.724;9.898;2022-10-30T09:12:55;7.88;;;5.20;;
40515;SDS011;26216;53.724;9.898;2022-10-30T09:15:22;7.57;;;5.05;;
40515;SDS011;26216;53.724;9.898;2022-10-30T09:17:53;8.07;;;5.50;;
40515;SDS011;26216;53.724;9.898;2022-10-30T09:20:23;6.93;;;5.13;;
40515;SDS011;26216;53.724;9.898;2022-10-30T09:22:49;7.47;;;4.85;;
40515;SDS011;26216;53.724;9.898;2022-10-30T09:25:15;8.30;;;5.10;;
40515;SDS011;26216;53.724;9.898;2022-10-30T09:27:41;6.28;;;4.25;;
40515;SDS011;26216;53.724;9.898;2022-10-30T09:30:07;7.05;;;4.55;;
40515;SDS011;26216;53.724;9.898;2022-10-30T09:32:33;8.45;;;5.57;;
40515;SDS011;26216;53.724;9.898;2022-10-30T09:34:59;11.48;;;6.20;;
40515;SDS011;26216;53.724;9.898;2022-10-30T09:37:25;10.10;;;6.10;;
40515;SDS011;26216;53.724;9.898;2022-10-30T09:39:51;10.88;;;6.50;;
40515;SDS011;26216;53.724;9.898;2022-10-30T09:42:50;8.85;;;6.10;;
40515;SDS011;26216;53.724;9.898;2022-10-30T09:50:51;9.75;;;6.05;;
40515;SDS011;26216;53.724;9.898;2022-10-30T09:53:42;10.27;;;6.47;;
40515;SDS011;26216;53.724;9.898;2022-10-30T09:56:42;11.98;;;7.40;;
40515;SDS011;26216;53.724;9.898;2022-10-30T10:02:16;9.82;;;5.95;;
40515;SDS011;26216;53.724;9.898;2022-10-30T10:05:03;9.90;;;5.97;;
40515;SDS011;26216;53.724;9.898;2022-10-30T10:08:06;7.78;;;5.68;;
40515;SDS011;26216;53.724;9.898;2022-10-30T10:10:40;10.20;;;6.18;;
40515;SDS011;26216;53.724;9.898;2022-10-30T10:13:17;9.30;;;6.32;;
40515;SDS011;26216;53.724;9.898;2022-10-30T10:15:50;8.00;;;5.40;;
40515;SDS011;26216;53.724;9.898;2022-10-30T10:18:42;11.40;;;6.13;;
40515;SDS011;26216;53.724;9.898;2022-10-30T10:21:14;8.45;;;5.90;;
40515;SDS011;26216;53.724;9.898;2022-10-30T10:23:48;10.82;;;6.60;;
40515;SDS011;26216;53.724;9.898;2022-10-30T10:29:31;8.18;;;6.30;;
40515;SDS011;26216;53.724;9.898;2022-10-30T10:32:33;10.13;;;5.90;;
40515;SDS011;26216;53.724;9.898;2022-10-30T10:35:35;7.90;;;5.72;;
40515;SDS011;26216;53.724;9.898;2022-10-30T10:52:59;7.55;;;5.25;;
40515;SDS011;26216;53.724;9.898;2022-10-30T10:55:30;8.63;;;5.63;;
40515;SDS011;26216;53.724;9.898;2022-10-30T10:58:12;9.52;;;5.85;;
40515;SDS011;26216;53.724;9.898;2022-10-30T11:00:46;11.77;;;6.32;;
40515;SDS011;26216;53.724;9.898;2022-10-30T11:03:19;10.82;;;7.28;;
40515;SDS011;26216;53.724;9.898;2022-10-30T11:08:32;12.20;;;7.15;;
40515;SDS011;26216;53.724;9.898;2022-10-30T11:11:05;7.72;;;5.75;;
40515;SDS011;26216;53.724;9.898;2022-10-30T11:13:38;8.90;;;5.88;;
40515;SDS011;26216;53.724;9.898;2022-10-30T11:16:24;7.93;;;5.20;;
40515;SDS011;26216;53.724;9.898;2022-10-30T11:19:00;8.05;;;5.00;;
40515;SDS011;26216;53.724;9.898;2022-10-30T11:21:33;11.02;;;6.72;;
40515;SDS011;26216;53.724;9.898;2022-10-30T11:24:02;13.45;;;7.18;;
40515;SDS011;26216;53.724;9.898;2022-10-30T11:26:50;13.98;;;6.80;;
40515;SDS011;26216;53.724;9.898;2022-10-30T11:29:17;11.27;;;6.90;;
40515;SDS011;26216;53.724;9.898;2022-10-30T11:31:59;10.65;;;6.30;;
40515;SDS011;26216;53.724;9.898;2022-10-30T11:34:33;9.05;;;5.55;;
40515;SDS011;26216;53.724;9.898;2022-10-30T11:37:00;8.07;;;5.50;;
40515;SDS011;26216;53.724;9.898;2022-10-30T11:39:27;11.18;;;6.32;;
40515;SDS011;26216;53.724;9.898;2022-10-30T11:44:42;9.13;;;5.57;;
40515;SDS011;26216;53.724;9.898;2022-10-30T11:47:15;11.02;;;6.90;;
40515;SDS011;26216;53.724;9.898;2022-10-30T11:49:48;9.30;;;5.55;;
40515;SDS011;26216;53.724;9.898;2022-10-30T11:52:16;6.93;;;4.95;;
40515;SDS011;26216;53.724;9.898;2022-10-30T11:54:52;8.85;;;5.72;;
40515;SDS011;26216;53.724;9.898;2022-10-30T11:57:32;8.55;;;5.30;;
40515;SDS011;26216;53.724;9.898;2022-10-30T12:00:07;10.55;;;6.50;;
40515;SDS011;26216;53.724;9.898;2022-10-30T12:02:46;8.93;;;5.43;;
40515;SDS011;26216;53.724;9.898;2022-10-30T12:08:17;6.00;;;4.47;;
40515;SDS011;26216;53.724;9.898;2022-10-30T12:13:18;12.10;;;7.32;;
40515;SDS011;26216;53.724;9.898;2022-10-30T12:15:46;9.25;;;6.10;;
40515;SDS011;26216;53.724;9.898;2022-10-30T12:18:21;9.63;;;6.05;;
40515;SDS011;26216;53.724;9.898;2022-10-30T12:20:52;8.43;;;5.00;;
40515;SDS011;26216;53.724;9.898;2022-10-30T12:23:21;5.70;;;4.13;;
40515;SDS011;26216;53.724;9.898;2022-10-30T12:26:08;6.40;;;4.35;;
40515;SDS011;26216;53.724;9.898;2022-10-30T12:28:36;8.88;;;6.00;;
40515;SDS011;26216;53.724;9.898;2022-10-30T12:31:05;7.82;;;5.20;;
40515;SDS011;26216;53.724;9.898;2022-10-30T12:33:56;9.05;;;5.20;;
40515;SDS011;26216;53.724;9.898;2022-10-30T12:36:32;10.52;;;5.82;;
40515;SDS011;26216;53.724;9.898;2022-10-30T12:39:03;7.47;;;5.13;;
40515;SDS011;26216;53.724;9.898;2022-10-30T12:41:41;7.20;;;5.15;;
40515;SDS011;26216;53.724;9.898;2022-10-30T12:44:37;9.93;;;6.60;;
40515;SDS011;26216;53.724;9.898;2022-10-30T12:47:11;8.38;;;5.78;;
40515;SDS011;26216;53.724;9.898;2022-10-30T12:49:51;10.10;;;6.47;;
40515;SDS011;26216;53.724;9.898;2022-10-30T12:52:33;9.52;;;5.95;;
40515;SDS011;26216;53.724;9.898;2022-10-30T13:00:34;8.60;;;5.32;;
40515;SDS011;26216;53.724;9.898;2022-10-30T13:05:57;10.43;;;6.15;;
40515;SDS011;26216;53.724;9.898;2022-10-30T13:08:31;7.00;;;4.68;;
40515;SDS011;26216;53.724;9.898;2022-10-30T13:11:35;9.75;;;5.25;;
40515;SDS011;26216;53.724;9.898;2022-10-30T13:13:57;6.95;;;3.78;;
40515;SDS011;26216;53.724;9.898;2022-10-30T13:16:28;5.78;;;3.97;;
40515;SDS011;26216;53.724;9.898;2022-10-30T13:18:56;5.47;;;3.88;;
40515;SDS011;26216;53.724;9.898;2022-10-30T13:21:29;7.35;;;4.15;;
40515;SDS011;26216;53.724;9.898;2022-10-30T13:29:36;9.18;;;4.97;;
40515;SDS011;26216;53.724;9.898;2022-10-30T13:31:50;5.72;;;4.07;;
40515;SDS011;26216;53.724;9.898;2022-10-30T13:37:08;9.30;;;4.00;;
40515;SDS011;26216;53.724;9.898;2022-10-30T13:43:01;5.80;;;3.78;;
40515;SDS011;26216;53.724;9.898;2022-10-30T13:45:52;7.05;;;4.47;;
40515;SDS011;26216;53.724;9.898;2022-10-30T13:48:33;7.32;;;4.00;;
40515;SDS011;26216;53.724;9.898;2022-10-30T13:51:36;6.70;;;4.53;;
40515;SDS011;26216;53.724;9.898;2022-10-30T13:56:42;7.68;;;4.43;;
40515;SDS011;26216;53.724;9.898;2022-10-30T13:59:17;8.05;;;5.15;;
40515;SDS011;26216;53.724;9.898;2022-10-30T14:04:48;6.25;;;3.97;;
40515;SDS011;26216;53.724;9.898;2022-10-30T14:10:07;7.53;;;4.55;;
40515;SDS011;26216;53.724;9.898;2022-10-30T14:15:25;5.53;;;3.88;;
40515;SDS011;26216;53.724;9.898;2022-10-30T14:20:39;7.55;;;4.20;;
40515;SDS011;26216;53.724;9.898;2022-10-30T14:31:01;5.50;;;4.03;;
40515;SDS011;26216;53.724;9.898;2022-10-30T14:33:41;5.75;;;3.67;;
40515;SDS011;26216;53.724;9.898;2022-10-30T14:36:19;7.53;;;3.60;;
40515;SDS011;26216;53.724;9.898;2022-10-30T14:38:58;5.78;;;3.38;;
40515;SDS011;26216;53.724;9.898;2022-10-30T14:50:29;3.70;;;2.90;;
40515;SDS011;26216;53.724;9.898;2022-10-30T14:55:28;4.28;;;2.92;;
40515;SDS011;26216;53.724;9.898;2022-10-30T15:14:09;4.72;;;2.75;;
40515;SDS011;26216;53.724;9.898;2022-10-30T15:16:49;4.50;;;2.92;;
40515;SDS011;26216;53.724;9.898;2022-10-30T15:19:16;4.72;;;2.70;;
40515;SDS011;26216;53.724;9.898;2022-10-30T15:21:47;4.25;;;3.20;;
40515;SDS011;26216;53.724;9.898;2022-10-30T15:24:17;5.43;;;3.10;;
40515;SDS011;26216;53.724;9.898;2022-10-30T15:26:46;6.53;;;3.22;;
40515;SDS011;26216;53.724;9.898;2022-10-30T15:29:31;6.18;;;2.95;;
40515;SDS011;26216;53.724;9.898;2022-10-30T15:32:19;5.65;;;3.80;;
40515;SDS011;26216;53.724;9.898;2022-10-30T15:34:58;16.58;;;12.98;;
40515;SDS011;26216;53.724;9.898;2022-10-30T15:37:27;25.65;;;19.45;;
40515;SDS011;26216;53.724;9.898;2022-10-30T15:42:37;16.77;;;13.07;;
40515;SDS011;26216;53.724;9.898;2022-10-30T15:45:04;15.05;;;11.52;;
40515;SDS011;26216;53.724;9.898;2022-10-30T15:47:34;13.32;;;10.50;;
40515;SDS011;26216;53.724;9.898;2022-10-30T15:50:00;12.85;;;9.85;;
40515;SDS011;26216;53.724;9.898;2022-10-30T15:52:26;12.13;;;8.80;;
40515;SDS011;26216;53.724;9.898;2022-10-30T15:54:55;10.02;;;7.60;;
40515;SDS011;26216;53.724;9.898;2022-10-30T15:57:33;9.05;;;6.53;;
40515;SDS011;26216;53.724;9.898;2022-10-30T16:00:19;7.63;;;5.65;;
40515;SDS011;26216;53.724;9.898;2022-10-30T16:03:00;7.07;;;5.20;;
40515;SDS011;26216;53.724;9.898;2022-10-30T16:05:35;8.90;;;5.05;;
40515;SDS011;26216;53.724;9.898;2022-10-30T16:08:02;8.27;;;4.93;;
40515;SDS011;26216;53.724;9.898;2022-10-30T16:10:34;6.22;;;4.18;;
40515;SDS011;26216;53.724;9.898;2022-10-30T16:13:02;6.40;;;4.35;;
40515;SDS011;26216;53.724;9.898;2022-10-30T16:15:29;7.47;;;4.25;;
40515;SDS011;26216;53.724;9.898;2022-10-30T16:18:09;5.97;;;4.13;;
40515;SDS011;26216;53.724;9.898;2022-10-30T16:20:39;4.32;;;3.58;;
40515;SDS011;26216;53.724;9.898;2022-10-30T16:23:07;5.63;;;3.92;;
40515;SDS011;26216;53.724;9.898;2022-10-30T16:25:33;7.18;;;3.67;;
40515;SDS011;26216;53.724;9.898;2022-10-30T16:28:04;5.55;;;3.45;;
40515;SDS011;26216;53.724;9.898;2022-10-30T16:30:31;5.47;;;3.70;;
40515;SDS011;26216;53.724;9.898;2022-10-30T16:32:58;7.40;;;4.00;;
40515;SDS011;26216;53.724;9.898;2022-10-30T16:35:24;5.20;;;3.38;;
40515;SDS011;26216;53.724;9.898;2022-10-30T16:37:52;6.68;;;3.85;;
40515;SDS011;26216;53.724;9.898;2022-10-30T16:40:23;5.28;;;3.65;;
40515;SDS011;26216;53.724;9.898;2022-10-30T16:42:58;4.47;;;3.47;;
40515;SDS011;26216;53.724;9.898;2022-10-30T16:47:54;5.10;;;3.42;;
40515;SDS011;26216;53.724;9.898;2022-10-30T16:50:29;6.18;;;3.60;;
40515;SDS011;26216;53.724;9.898;2022-10-30T16:53:05;4.32;;;3.40;;
40515;SDS011;26216;53.724;9.898;2022-10-30T16:55:46;5.97;;;3.85;;
40515;SDS011;26216;53.724;9.898;2022-10-30T16:58:12;5.18;;;3.92;;
40515;SDS011;26216;53.724;9.898;2022-10-30T17:00:40;6.72;;;3.70;;
40515;SDS011;26216;53.724;9.898;2022-10-30T17:03:12;5.47;;;3.83;;
40515;SDS011;26216;53.724;9.898;2022-10-30T17:05:39;4.95;;;3.70;;
40515;SDS011;26216;53.724;9.898;2022-10-30T17:13:30;6.53;;;4.10;;
40515;SDS011;26216;53.724;9.898;2022-10-30T17:16:20;6.50;;;3.95;;
40515;SDS011;26216;53.724;9.898;2022-10-30T17:18:54;5.03;;;3.63;;
40515;SDS011;26216;53.724;9.898;2022-10-30T17:21:26;5.88;;;4.28;;
40515;SDS011;26216;53.724;9.898;2022-10-30T17:24:30;5.68;;;4.47;;
40515;SDS011;26216;53.724;9.898;2022-10-30T17:26:59;6.82;;;3.90;;
40515;SDS011;26216;53.724;9.898;2022-10-30T17:32:23;6.00;;;3.80;;
40515;SDS011;26216;53.724;9.898;2022-10-30T17:35:13;6.15;;;3.70;;
40515;SDS011;26216;53.724;9.898;2022-10-30T17:37:40;4.70;;;3.80;;
40515;SDS011;26216;53.724;9.898;2022-10-30T17:40:06;6.43;;;3.85;;
40515;SDS011;26216;53.724;9.898;2022-10-30T17:42:32;5.28;;;4.18;;